Time;durP1;ratioP1;P1;durP2;ratioP2;P2;SDS_P1;SDS_P2;PMS_P1;PMS_P2;Temp;Humidity;BMP_temperature;BMP_pressure;BME280_temperature;BME280_humidity;BME280_pressure;Samples;Min_cycle;Max_cycle;Signal;HPM_P1;HPM_P2
2023/08/27 00:01:08;;;;;;;35.77;26.67;;;15.00;99.90;;;;;;5094738;28;20277;-78
2023/08/27 00:03:34;;;;;;;38.07;27.40;;;14.90;99.90;;;;;;5095109;28;20200;-78
2023/08/27 00:06:01;;;;;;;39.47;27.10;;;14.90;99.90;;;;;;5094760;28;20651;-78
2023/08/27 00:08:28;;;;;;;34.90;27.53;;;14.90;99.90;;;;;;5095018;28;20594;-78
2023/08/27 00:10:58;;;;;;;36.60;28.87;;;15.00;99.90;;;;;;5094789;28;20192;-78
2023/08/27 00:13:25;;;;;;;38.50;27.43;;;14.90;99.90;;;;;;5094622;28;20529;-78
2023/08/27 00:15:52;;;;;;;33.63;27.13;;;14.90;99.90;;;;;;5094735;28;20197;-78
2023/08/27 00:18:20;;;;;;;33.90;24.77;;;14.80;99.90;;;;;;5094903;28;20266;-78
2023/08/27 00:20:47;;;;;;;37.63;27.37;;;14.70;99.90;;;;;;5094878;28;20196;-78
2023/08/27 00:23:14;;;;;;;39.97;26.37;;;14.70;99.90;;;;;;5094656;28;20630;-78
2023/08/27 00:25:40;;;;;;;34.10;25.43;;;14.70;99.90;;;;;;5094744;28;20202;-78
2023/08/27 00:28:07;;;;;;;39.87;28.23;;;14.70;99.90;;;;;;5094562;28;20648;-78
2023/08/27 00:30:34;;;;;;;40.23;28.63;;;14.80;99.90;;;;;;5094593;28;20204;-78
2023/08/27 00:33:01;;;;;;;39.17;29.07;;;14.80;99.90;;;;;;5094710;28;20204;-78
2023/08/27 00:35:29;;;;;;;38.50;28.90;;;14.80;99.90;;;;;;5094760;28;20630;-79
2023/08/27 00:37:55;;;;;;;38.77;28.47;;;14.80;99.90;;;;;;5094225;28;20218;-79
2023/08/27 00:40:22;;;;;;;38.33;28.13;;;14.90;99.90;;;;;;5094239;28;20245;-78
2023/08/27 00:42:48;;;;;;;39.70;29.20;;;15.00;99.90;;;;;;5093114;28;20228;-78
2023/08/27 00:45:15;;;;;;;41.90;29.00;;;15.00;99.90;;;;;;5094166;28;20204;-78
2023/08/27 00:47:42;;;;;;;41.13;28.57;;;15.00;99.90;;;;;;5094202;28;20192;-79
2023/08/27 00:50:10;;;;;;;41.37;29.00;;;15.00;99.90;;;;;;5093944;28;20210;-79
2023/08/27 00:52:38;;;;;;;36.40;28.07;;;15.00;99.90;;;;;;5094049;28;20547;-79
2023/08/27 00:55:06;;;;;;;38.47;26.73;;;15.00;99.90;;;;;;5093704;28;20598;-79
2023/08/27 00:57:33;;;;;;;37.03;26.70;;;15.00;99.90;;;;;;5093672;28;20715;-79
2023/08/27 01:00:00;;;;;;;41.73;29.23;;;14.90;99.90;;;;;;5093590;28;20712;-79
2023/08/27 01:02:27;;;;;;;37.97;29.57;;;14.90;99.90;;;;;;5093902;28;20228;-79
2023/08/27 01:04:53;;;;;;;38.90;27.73;;;14.80;99.90;;;;;;5093497;28;20597;-79
2023/08/27 01:07:40;;;;;;;49.87;27.80;;;14.80;99.90;;;;;;5093563;28;20204;-79
2023/08/27 01:10:16;;;;;;;39.83;26.53;;;14.90;99.90;;;;;;5093532;28;20200;-80
2023/08/27 01:12:52;;;;;;;37.73;26.83;;;14.90;99.90;;;;;;5093677;28;20226;-79
2023/08/27 01:15:21;;;;;;;69.23;36.60;;;15.00;99.90;;;;;;5093544;28;20203;-80
2023/08/27 01:17:49;;;;;;;72.82;38.00;;;15.10;99.90;;;;;;5093346;28;20196;-79
2023/08/27 01:20:17;;;;;;;67.60;38.57;;;15.20;99.90;;;;;;5093264;28;20601;-79
2023/08/27 01:22:45;;;;;;;111.10;41.70;;;15.20;99.90;;;;;;5093427;28;20233;-80
2023/08/27 01:25:14;;;;;;;213.27;46.73;;;15.20;99.90;;;;;;5093484;28;20208;-80
2023/08/27 01:27:45;;;;;;;162.00;42.88;;;15.20;99.90;;;;;;5093433;28;20287;-80
2023/08/27 01:30:18;;;;;;;147.40;42.17;;;15.30;99.90;;;;;;5093463;28;20193;-80
2023/08/27 01:32:50;;;;;;;124.43;44.27;;;15.30;99.90;;;;;;5093141;28;20196;-80
2023/08/27 01:35:17;;;;;;;133.57;40.17;;;15.30;99.90;;;;;;5093300;28;20199;-80
2023/08/27 01:37:45;;;;;;;151.20;43.03;;;15.30;99.90;;;;;;5093201;28;20237;-80
2023/08/27 01:40:12;;;;;;;104.17;40.43;;;15.30;99.90;;;;;;5093037;28;20196;-80
2023/08/27 01:42:39;;;;;;;113.07;42.37;;;15.20;99.90;;;;;;5093036;28;20755;-80
2023/08/27 01:45:07;;;;;;;69.67;39.20;;;15.30;99.90;;;;;;5093185;28;20196;-80
2023/08/27 01:47:33;;;;;;;74.17;39.00;;;15.30;99.90;;;;;;5093043;28;20214;-80
2023/08/27 01:50:00;;;;;;;64.57;36.80;;;15.30;99.90;;;;;;5093164;28;20200;-81
2023/08/27 01:52:27;;;;;;;69.17;35.00;;;15.40;99.90;;;;;;5093152;28;20250;-80
2023/08/27 01:54:55;;;;;;;61.47;36.03;;;15.30;99.90;;;;;;5092984;28;20226;-80
2023/08/27 01:57:21;;;;;;;59.63;35.27;;;15.40;99.90;;;;;;5093185;28;20309;-80
2023/08/27 01:59:48;;;;;;;68.72;35.50;;;15.40;99.90;;;;;;5092542;28;20228;-81
2023/08/27 02:02:14;;;;;;;67.93;34.50;;;15.30;99.90;;;;;;5094211;28;20270;-81
2023/08/27 02:04:41;;;;;;;62.05;33.63;;;15.30;99.90;;;;;;5094126;28;20192;-80
2023/08/27 02:07:09;;;;;;;80.90;37.87;;;15.40;99.90;;;;;;5092930;28;20226;-80
2023/08/27 02:09:35;;;;;;;80.10;34.13;;;15.40;99.90;;;;;;5092834;28;20192;-80
2023/08/27 02:12:04;;;;;;;61.90;34.00;;;15.20;99.90;;;;;;5092822;28;20257;-80
2023/08/27 02:14:31;;;;;;;67.03;34.40;;;15.20;99.90;;;;;;5092642;28;20197;-80
2023/08/27 02:16:57;;;;;;;57.10;32.27;;;15.20;99.90;;;;;;5093104;28;20200;-81
2023/08/27 02:19:24;;;;;;;65.43;31.80;;;15.20;99.90;;;;;;5093508;28;20219;-81
2023/08/27 02:21:51;;;;;;;112.47;33.23;;;15.20;99.90;;;;;;5093193;28;20674;-80
2023/08/27 02:24:17;;;;;;;56.50;31.27;;;15.10;99.90;;;;;;5093466;28;20291;-81
2023/08/27 02:26:44;;;;;;;61.80;31.63;;;15.20;99.90;;;;;;5092821;28;20192;-81
2023/08/27 02:29:12;;;;;;;67.93;32.20;;;15.10;99.90;;;;;;5092992;28;20204;-81
2023/08/27 02:31:39;;;;;;;92.17;31.03;;;15.10;99.90;;;;;;5093187;28;20201;-81
2023/08/27 02:34:06;;;;;;;78.60;32.23;;;15.00;99.90;;;;;;5093297;28;20254;-80
2023/08/27 02:36:32;;;;;;;78.37;33.10;;;15.00;99.90;;;;;;5093061;28;20240;-80
2023/08/27 02:38:59;;;;;;;88.43;32.90;;;15.10;99.90;;;;;;5092535;28;20595;-80
2023/08/27 02:41:25;;;;;;;92.73;31.30;;;14.90;99.90;;;;;;5092834;28;20258;-79
2023/08/27 02:43:52;;;;;;;81.93;31.87;;;14.90;99.90;;;;;;5092637;28;20239;-80
2023/08/27 02:46:20;;;;;;;100.30;31.33;;;15.00;99.90;;;;;;5092499;28;20300;-81
2023/08/27 02:48:47;;;;;;;98.27;33.63;;;14.90;99.90;;;;;;5092778;28;20200;-80
2023/08/27 02:51:14;;;;;;;109.97;34.67;;;14.90;99.90;;;;;;5092741;28;20201;-80
2023/08/27 02:53:40;;;;;;;104.33;34.60;;;15.00;99.90;;;;;;5092842;28;20307;-80
2023/08/27 02:56:08;;;;;;;65.23;33.93;;;14.90;99.90;;;;;;5092731;28;20656;-80
2023/08/27 02:58:34;;;;;;;85.27;33.50;;;14.90;99.90;;;;;;5092748;28;20233;-80
2023/08/27 03:01:01;;;;;;;80.93;35.37;;;14.90;99.90;;;;;;5092635;28;20204;-81
2023/08/27 03:03:29;;;;;;;71.03;33.73;;;14.80;99.90;;;;;;5092947;28;20228;-80
2023/08/27 03:05:56;;;;;;;64.90;34.73;;;14.90;99.90;;;;;;5093194;28;20287;-80
2023/08/27 03:08:22;;;;;;;55.63;32.17;;;14.90;99.90;;;;;;5096491;28;20332;-80
2023/08/27 03:10:49;;;;;;;53.93;31.33;;;15.00;99.90;;;;;;5096318;28;20200;-80
2023/08/27 03:13:16;;;;;;;52.87;31.97;;;15.00;99.90;;;;;;5096313;28;20228;-80
2023/08/27 03:15:42;;;;;;;49.87;31.77;;;15.00;99.90;;;;;;5096318;28;20597;-80
2023/08/27 03:18:11;;;;;;;56.30;32.57;;;15.10;99.90;;;;;;5096438;28;20259;-80
2023/08/27 03:20:39;;;;;;;51.70;29.17;;;15.10;99.90;;;;;;5096339;28;20697;-81
2023/08/27 03:23:05;;;;;;;45.00;30.17;;;15.00;99.90;;;;;;5096310;28;20219;-77
2023/08/27 03:25:32;;;;;;;46.43;29.83;;;15.00;99.90;;;;;;5096071;28;20254;-80
2023/08/27 03:27:59;;;;;;;47.73;32.03;;;15.00;99.90;;;;;;5096505;28;20607;-80
2023/08/27 03:30:26;;;;;;;43.85;29.90;;;15.00;99.90;;;;;;5096239;28;20196;-80
2023/08/27 03:32:52;;;;;;;46.30;30.30;;;15.00;99.90;;;;;;5096127;28;20249;-80
2023/08/27 03:35:19;;;;;;;50.27;30.43;;;14.90;99.90;;;;;;5095739;28;20245;-81
2023/08/27 03:37:47;;;;;;;50.87;30.83;;;14.90;99.90;;;;;;5095855;28;20246;-80
2023/08/27 03:40:14;;;;;;;42.87;29.53;;;14.90;99.90;;;;;;5096094;28;20201;-80
2023/08/27 03:42:40;;;;;;;37.00;27.60;;;14.90;99.90;;;;;;5095679;28;20688;-80
2023/08/27 03:45:09;;;;;;;36.40;27.03;;;14.90;99.90;;;;;;5095913;28;20195;-79
2023/08/27 03:47:35;;;;;;;35.57;27.87;;;14.90;99.90;;;;;;5095592;28;20207;-80
2023/08/27 03:50:03;;;;;;;38.27;28.70;;;14.90;99.90;;;;;;5095860;28;20200;-81
2023/08/27 03:52:29;;;;;;;37.63;27.93;;;15.00;99.90;;;;;;5095626;28;20261;-80
2023/08/27 03:54:57;;;;;;;38.60;27.47;;;14.90;99.90;;;;;;5095966;28;20203;-80
2023/08/27 03:57:25;;;;;;;38.00;28.10;;;14.90;99.90;;;;;;5095245;28;20241;-80
2023/08/27 03:59:51;;;;;;;35.87;27.17;;;14.90;99.90;;;;;;5097807;28;20294;-78
2023/08/27 04:02:18;;;;;;;39.43;28.50;;;14.90;99.90;;;;;;5099791;28;20262;-80
2023/08/27 04:04:44;;;;;;;38.30;28.20;;;14.90;99.90;;;;;;5095638;28;20193;-80
2023/08/27 04:07:12;;;;;;;38.77;28.37;;;15.00;99.90;;;;;;5094785;28;20210;-75
2023/08/27 04:09:39;;;;;;;38.57;28.90;;;15.00;99.90;;;;;;5094853;28;20258;-76
2023/08/27 04:12:07;;;;;;;37.67;27.73;;;15.10;99.90;;;;;;5094779;28;20249;-76
2023/08/27 04:14:34;;;;;;;36.37;27.97;;;15.10;99.90;;;;;;5094645;28;20208;-75
2023/08/27 04:17:01;;;;;;;37.70;28.07;;;15.10;99.90;;;;;;5094588;28;20201;-76
2023/08/27 04:19:27;;;;;;;38.27;27.73;;;15.10;99.90;;;;;;5094467;28;20250;-75
2023/08/27 04:21:54;;;;;;;36.43;27.90;;;15.20;99.90;;;;;;5094727;28;20197;-76
2023/08/27 04:24:22;;;;;;;41.37;28.47;;;15.20;99.90;;;;;;5094711;28;20293;-78
2023/08/27 04:26:49;;;;;;;36.83;28.93;;;15.20;99.90;;;;;;5094991;28;20200;-78
2023/08/27 04:29:17;;;;;;;39.30;29.63;;;15.20;99.90;;;;;;5094196;28;20254;-77
2023/08/27 04:31:44;;;;;;;39.10;29.00;;;15.30;99.90;;;;;;5094308;28;20250;-77
2023/08/27 04:34:10;;;;;;;42.83;30.37;;;15.30;99.90;;;;;;5094107;28;20694;-78
2023/08/27 04:36:37;;;;;;;41.37;29.27;;;15.30;99.90;;;;;;5098271;28;20196;-78
2023/08/27 04:39:04;;;;;;;40.40;30.00;;;15.30;99.90;;;;;;5094262;28;20201;-78
2023/08/27 04:41:33;;;;;;;40.73;29.07;;;15.30;99.90;;;;;;5097673;28;20716;-78
2023/08/27 04:44:00;;;;;;;42.17;29.93;;;15.30;99.90;;;;;;5093975;28;20223;-77
2023/08/27 04:46:27;;;;;;;38.53;28.60;;;15.30;99.90;;;;;;5094290;28;20200;-77
2023/08/27 04:48:54;;;;;;;36.97;27.57;;;15.30;99.90;;;;;;5094431;28;20204;-77
2023/08/27 04:51:21;;;;;;;38.90;28.13;;;15.30;99.90;;;;;;5093659;28;20192;-77
2023/08/27 04:53:48;;;;;;;37.33;28.57;;;15.30;99.90;;;;;;5094052;28;20228;-77
2023/08/27 04:56:14;;;;;;;36.73;26.87;;;15.30;99.90;;;;;;5093823;28;20196;-77
2023/08/27 04:58:41;;;;;;;35.20;27.07;;;15.30;99.90;;;;;;5094144;28;20293;-77
2023/08/27 05:01:09;;;;;;;35.10;27.90;;;15.30;99.90;;;;;;5094166;28;20261;-78
2023/08/27 05:03:38;;;;;;;37.20;27.13;;;15.30;99.90;;;;;;5094159;28;20228;-78
2023/08/27 05:06:05;;;;;;;34.83;26.50;;;15.40;99.90;;;;;;5093902;28;20203;-77
2023/08/27 05:08:32;;;;;;;34.30;26.03;;;15.40;99.90;;;;;;5093875;28;20612;-77
2023/08/27 05:10:59;;;;;;;31.83;24.93;;;15.40;99.90;;;;;;5093509;28;20196;-75
2023/08/27 05:13:26;;;;;;;34.67;26.42;;;15.40;99.90;;;;;;5093403;28;20333;-76
2023/08/27 05:15:52;;;;;;;32.00;24.83;;;15.40;99.90;;;;;;5093420;28;20618;-76
2023/08/27 05:18:19;;;;;;;32.83;25.67;;;15.40;99.90;;;;;;5093247;28;20602;-76
2023/08/27 05:20:47;;;;;;;32.87;26.43;;;15.40;99.90;;;;;;5093124;28;20564;-75
2023/08/27 05:23:14;;;;;;;35.83;26.70;;;15.50;99.90;;;;;;5093202;28;20216;-75
2023/08/27 05:25:40;;;;;;;33.17;25.58;;;15.50;99.90;;;;;;5093222;28;20646;-76
2023/08/27 05:28:07;;;;;;;33.90;26.33;;;15.50;99.90;;;;;;5093156;28;20204;-75
2023/08/27 05:30:33;;;;;;;30.30;24.02;;;15.40;99.90;;;;;;5092702;28;20200;-76
2023/08/27 05:33:00;;;;;;;33.57;24.90;;;15.40;99.90;;;;;;5093096;28;20196;-77
2023/08/27 05:35:27;;;;;;;32.00;24.53;;;15.40;99.90;;;;;;5093399;28;20204;-77
2023/08/27 05:37:55;;;;;;;32.43;25.00;;;15.40;99.90;;;;;;5093187;28;20204;-77
2023/08/27 05:40:22;;;;;;;31.60;24.07;;;15.50;99.90;;;;;;5093112;28;20291;-77
2023/08/27 05:42:49;;;;;;;29.83;23.70;;;15.50;99.90;;;;;;5092969;28;20269;-76
2023/08/27 05:45:15;;;;;;;31.08;24.15;;;15.60;99.90;;;;;;5093219;28;20246;-76
2023/08/27 05:47:42;;;;;;;27.67;23.30;;;15.70;99.90;;;;;;5093226;28;20200;-77
2023/08/27 05:50:09;;;;;;;28.40;23.83;;;15.80;99.90;;;;;;5093127;28;20277;-76
2023/08/27 05:52:36;;;;;;;31.75;24.27;;;15.90;99.90;;;;;;5092987;28;20250;-76
2023/08/27 05:55:04;;;;;;;27.90;21.83;;;16.00;99.90;;;;;;5092766;28;20647;-76
2023/08/27 05:57:31;;;;;;;27.40;23.75;;;15.90;99.90;;;;;;5092853;28;20712;-76
2023/08/27 05:59:58;;;;;;;29.75;23.95;;;16.00;99.90;;;;;;5092584;28;20281;-77
2023/08/27 06:02:25;;;;;;;28.73;22.13;;;16.00;99.90;;;;;;5092784;28;20196;-76
2023/08/27 06:04:51;;;;;;;26.42;23.30;;;16.00;99.90;;;;;;5092704;28;20274;-75
2023/08/27 06:07:18;;;;;;;25.38;22.50;;;15.90;99.90;;;;;;5092801;28;20207;-76
2023/08/27 06:09:45;;;;;;;25.58;22.80;;;15.90;99.90;;;;;;5092773;28;20193;-75
2023/08/27 06:12:12;;;;;;;24.73;21.85;;;16.00;99.90;;;;;;5092522;28;20196;-76
2023/08/27 06:14:39;;;;;;;26.30;23.53;;;16.00;99.90;;;;;;5092902;28;20196;-76
2023/08/27 06:17:06;;;;;;;27.10;23.05;;;16.00;99.90;;;;;;5091786;28;20540;-76
2023/08/27 06:19:32;;;;;;;25.95;22.77;;;16.00;99.90;;;;;;5092707;28;20201;-75
2023/08/27 06:21:59;;;;;;;23.92;21.45;;;16.10;99.90;;;;;;5092765;28;20200;-76
2023/08/27 06:24:26;;;;;;;24.48;21.90;;;16.10;99.90;;;;;;5092346;28;20220;-76
2023/08/27 06:26:52;;;;;;;24.92;21.95;;;16.10;99.90;;;;;;5092740;28;20204;-77
2023/08/27 06:29:20;;;;;;;24.35;21.10;;;16.20;99.90;;;;;;5092600;28;20196;-76
2023/08/27 06:31:47;;;;;;;23.58;20.48;;;16.20;99.90;;;;;;5092611;28;20196;-76
2023/08/27 06:34:14;;;;;;;21.80;19.50;;;16.20;99.90;;;;;;5092445;28;20654;-76
2023/08/27 06:36:40;;;;;;;22.67;20.02;;;16.30;99.90;;;;;;5092507;28;20196;-76
2023/08/27 06:39:07;;;;;;;22.70;20.23;;;16.30;99.90;;;;;;5092389;28;20196;-77
2023/08/27 06:41:33;;;;;;;23.40;18.48;;;16.30;99.90;;;;;;5094002;28;20204;-77
2023/08/27 06:44:00;;;;;;;20.67;18.48;;;16.40;99.90;;;;;;5096453;28;20277;-77
2023/08/27 06:46:28;;;;;;;19.10;17.10;;;16.40;99.90;;;;;;5096403;28;20196;-77
2023/08/27 06:48:56;;;;;;;21.13;18.65;;;16.30;99.90;;;;;;5096373;28;20193;-77
2023/08/27 06:51:22;;;;;;;20.38;18.17;;;16.30;99.90;;;;;;5096161;28;20548;-77
2023/08/27 06:53:49;;;;;;;18.85;16.88;;;16.30;99.90;;;;;;5096105;28;20204;-77
2023/08/27 06:56:16;;;;;;;20.55;18.50;;;16.30;99.90;;;;;;5095938;28;20705;-77
2023/08/27 06:58:42;;;;;;;19.83;17.15;;;16.40;99.90;;;;;;5095992;28;20224;-77
2023/08/27 07:01:09;;;;;;;18.70;16.17;;;16.40;99.90;;;;;;5096225;28;20207;-77
2023/08/27 07:03:37;;;;;;;18.35;16.45;;;16.40;99.90;;;;;;5096147;28;20230;-77
2023/08/27 07:06:05;;;;;;;17.55;15.65;;;16.50;99.90;;;;;;5095944;28;20249;-77
2023/08/27 07:08:31;;;;;;;16.83;15.23;;;16.50;99.90;;;;;;5095838;28;20205;-77
2023/08/27 07:10:58;;;;;;;19.33;16.73;;;16.60;99.90;;;;;;5096012;28;20563;-76
2023/08/27 07:13:25;;;;;;;16.75;15.15;;;16.70;99.90;;;;;;5095756;28;20250;-76
2023/08/27 07:15:51;;;;;;;16.10;14.50;;;16.80;99.90;;;;;;5096051;28;20610;-77
2023/08/27 07:18:18;;;;;;;16.02;14.52;;;16.80;99.90;;;;;;5095832;28;20200;-78
2023/08/27 07:20:47;;;;;;;16.08;14.40;;;16.80;99.90;;;;;;5095599;28;20226;-78
2023/08/27 07:23:14;;;;;;;15.85;13.63;;;16.90;99.90;;;;;;5095157;28;20651;-77
2023/08/27 07:25:41;;;;;;;14.15;12.60;;;17.00;99.90;;;;;;5095903;28;20228;-76
2023/08/27 07:28:08;;;;;;;10.02;9.13;;;17.00;99.90;;;;;;5095716;28;20196;-77
2023/08/27 07:30:36;;;;;;;9.25;8.45;;;17.00;99.90;;;;;;5095235;28;20192;-77
2023/08/27 07:33:06;;;;;;;8.63;7.82;;;16.90;99.90;;;;;;5095289;28;20200;-76
2023/08/27 07:35:32;;;;;;;8.70;7.90;;;16.90;99.90;;;;;;5095509;28;20212;-77
2023/08/27 07:38:00;;;;;;;7.05;6.45;;;16.80;99.90;;;;;;5095411;28;20200;-81
2023/08/27 07:40:27;;;;;;;6.85;6.15;;;16.80;99.90;;;;;;5095366;28;20207;-76
2023/08/27 07:42:54;;;;;;;5.40;5.00;;;16.90;99.90;;;;;;5095310;28;20605;-76
2023/08/27 07:45:20;;;;;;;5.03;4.63;;;17.00;99.90;;;;;;5095123;28;20224;-76
2023/08/27 07:47:47;;;;;;;5.60;5.13;;;17.20;99.90;;;;;;5094804;28;20596;-77
2023/08/27 07:50:14;;;;;;;4.75;4.35;;;17.40;99.90;;;;;;5095224;28;20265;-80
2023/08/27 07:52:40;;;;;;;4.40;4.00;;;17.50;99.90;;;;;;5095082;28;20193;-81
2023/08/27 07:55:09;;;;;;;4.63;4.22;;;17.50;99.90;;;;;;5095532;28;20291;-83
2023/08/27 07:57:35;;;;;;;4.47;4.18;;;17.30;99.90;;;;;;5094988;28;20233;-79
2023/08/27 08:00:03;;;;;;;4.60;4.20;;;17.40;99.90;;;;;;5094962;28;20224;-81
2023/08/27 08:02:29;;;;;;;4.97;4.57;;;17.40;99.90;;;;;;5093419;28;20227;-78
2023/08/27 08:04:56;;;;;;;5.05;4.65;;;17.50;99.90;;;;;;5094368;28;20277;-79
2023/08/27 08:07:23;;;;;;;4.68;4.30;;;17.20;99.90;;;;;;5094254;28;20196;-79
2023/08/27 08:09:49;;;;;;;5.43;4.93;;;17.20;99.90;;;;;;5094628;28;20705;-78
2023/08/27 08:12:17;;;;;;;6.65;6.05;;;17.10;99.90;;;;;;5087858;28;20251;-77
2023/08/27 08:14:44;;;;;;;7.07;6.18;;;16.90;99.90;;;;;;5074721;28;20201;-79
2023/08/27 08:17:11;;;;;;;7.07;6.47;;;16.90;99.90;;;;;;5081248;28;20196;-79
2023/08/27 08:19:38;;;;;;;7.70;7.10;;;16.70;99.90;;;;;;5097606;28;20238;-79
2023/08/27 08:22:05;;;;;;;9.23;7.80;;;16.80;99.90;;;;;;5094212;28;20228;-75
2023/08/27 08:24:32;;;;;;;10.40;8.63;;;17.00;99.90;;;;;;5092639;28;20223;-73
2023/08/27 08:27:02;;;;;;;9.93;8.93;;;17.00;99.90;;;;;;5094337;28;20193;-73
2023/08/27 08:29:32;;;;;;;10.80;9.50;;;17.20;99.90;;;;;;5094340;28;20212;-73
2023/08/27 08:31:58;;;;;;;9.38;8.57;;;17.50;99.90;;;;;;5094238;28;20189;-71
2023/08/27 08:34:27;;;;;;;9.40;8.50;;;17.40;99.90;;;;;;5094078;28;20207;-72
2023/08/27 08:36:54;;;;;;;9.02;8.13;;;17.60;99.90;;;;;;5094085;28;20537;-72
2023/08/27 08:39:21;;;;;;;8.93;8.18;;;17.60;99.90;;;;;;5094030;28;20193;-72
2023/08/27 08:41:53;;;;;;;11.45;8.95;;;17.60;99.90;;;;;;5093900;28;20222;-72
2023/08/27 08:44:27;;;;;;;9.65;8.73;;;17.50;99.90;;;;;;5093815;28;20687;-76
2023/08/27 08:46:55;;;;;;;11.00;9.90;;;17.70;99.90;;;;;;5091169;28;20337;-75
2023/08/27 08:49:23;;;;;;;9.02;8.27;;;17.60;99.90;;;;;;5090714;28;20200;-74
2023/08/27 08:51:54;;;;;;;11.18;10.20;;;17.30;99.90;;;;;;5090280;28;20203;-74
2023/08/27 08:54:24;;;;;;;10.15;9.30;;;17.30;99.90;;;;;;5090269;28;20242;-73
2023/08/27 08:56:56;;;;;;;10.52;9.60;;;17.10;99.90;;;;;;5090706;28;20184;-73
2023/08/27 08:59:27;;;;;;;11.38;10.38;;;17.00;99.90;;;;;;5090562;28;20802;-73
2023/08/27 09:01:55;;;;;;;12.18;11.02;;;17.00;99.90;;;;;;5090712;28;20200;-72
2023/08/27 09:04:23;;;;;;;11.25;10.13;;;17.10;99.90;;;;;;5089107;28;20216;-73
2023/08/27 09:06:50;;;;;;;10.88;9.82;;;17.20;99.90;;;;;;5090328;28;20204;-71
2023/08/27 09:09:17;;;;;;;11.27;10.10;;;17.30;99.90;;;;;;5089976;28;20199;-74
2023/08/27 09:11:45;;;;;;;9.68;8.88;;;17.30;99.90;;;;;;5090153;28;20254;-73
2023/08/27 09:14:12;;;;;;;10.27;9.23;;;17.30;99.90;;;;;;5090020;28;20666;-76
2023/08/27 09:16:39;;;;;;;11.32;10.10;;;17.30;99.90;;;;;;5089774;28;20200;-81
2023/08/27 09:19:07;;;;;;;10.15;9.13;;;17.40;99.90;;;;;;5091347;28;20716;-79
2023/08/27 09:21:35;;;;;;;9.25;8.45;;;17.50;99.90;;;;;;5093235;28;20192;-80
2023/08/27 09:24:02;;;;;;;9.43;8.52;;;17.60;99.90;;;;;;5093391;28;20200;-80
2023/08/27 09:26:28;;;;;;;9.00;8.15;;;17.60;99.90;;;;;;5094194;28;20254;-80
2023/08/27 09:28:56;;;;;;;7.63;6.93;;;17.70;99.90;;;;;;5093647;28;20647;-80
2023/08/27 09:31:37;;;;;;;6.35;5.60;;;17.70;99.90;;;;;;5093648;28;20249;-81
2023/08/27 09:34:04;;;;;;;6.22;5.50;;;17.70;99.90;;;;;;5093420;28;20648;-80
2023/08/27 09:36:34;;;;;;;5.90;5.40;;;17.80;99.90;;;;;;5093548;28;20196;-80
2023/08/27 09:39:07;;;;;;;6.60;5.55;;;18.00;99.90;;;;;;5093286;28;20656;-79
2023/08/27 09:41:37;;;;;;;7.72;5.63;;;18.10;99.90;;;;;;5093440;28;20200;-77
2023/08/27 09:44:04;;;;;;;7.72;6.15;;;17.90;99.90;;;;;;5093139;28;20261;-78
2023/08/27 09:46:31;;;;;;;7.30;6.28;;;17.80;99.90;;;;;;5093079;28;20200;-77
2023/08/27 09:48:58;;;;;;;5.90;5.30;;;18.00;99.90;;;;;;5093432;28;20317;-78
2023/08/27 09:51:26;;;;;;;5.50;4.97;;;18.10;99.90;;;;;;5093297;28;20196;-79
2023/08/27 09:53:55;;;;;;;6.35;5.10;;;18.20;99.90;;;;;;5093269;28;20199;-78
2023/08/27 09:56:23;;;;;;;5.80;4.90;;;18.20;99.90;;;;;;5093190;28;20598;-78
2023/08/27 09:58:50;;;;;;;5.50;5.00;;;18.50;99.90;;;;;;5092905;28;20224;-79
2023/08/27 10:01:18;;;;;;;5.07;4.60;;;18.70;99.90;;;;;;5092965;28;20572;-80
2023/08/27 10:03:47;;;;;;;5.10;4.60;;;18.60;99.90;;;;;;5093166;28;20212;-81
2023/08/27 10:06:14;;;;;;;5.30;4.65;;;18.50;99.90;;;;;;5093155;28;20277;-81
2023/08/27 10:08:47;;;;;;;6.10;4.93;;;18.40;99.90;;;;;;5093109;28;20226;-81
2023/08/27 10:11:16;;;;;;;6.97;4.40;;;18.50;99.90;;;;;;5093081;28;20196;-81
2023/08/27 10:13:44;;;;;;;6.05;4.32;;;18.60;99.90;;;;;;5092948;28;20202;-81
2023/08/27 10:16:11;;;;;;;7.80;4.30;;;18.90;99.90;;;;;;5095798;28;20200;-82
2023/08/27 10:18:39;;;;;;;4.53;4.07;;;19.10;99.90;;;;;;5097338;28;20542;-81
2023/08/27 10:21:08;;;;;;;6.95;4.60;;;19.40;99.90;;;;;;5097023;28;20196;-81
2023/08/27 10:23:35;;;;;;;4.82;4.32;;;19.60;99.90;;;;;;5097232;28;20196;-81
2023/08/27 10:26:03;;;;;;;6.65;4.13;;;19.40;99.90;;;;;;5096932;28;20224;-81
2023/08/27 10:28:32;;;;;;;4.82;4.32;;;19.30;99.90;;;;;;5096957;28;20200;-81
2023/08/27 10:30:59;;;;;;;4.55;3.90;;;19.60;99.90;;;;;;5096906;28;20227;-81
2023/08/27 10:33:26;;;;;;;4.38;3.97;;;19.90;99.90;;;;;;5096912;28;20196;-81
2023/08/27 10:35:55;;;;;;;3.83;3.53;;;20.00;99.90;;;;;;5096645;28;20555;-81
2023/08/27 10:38:25;;;;;;;3.92;3.53;;;20.20;99.90;;;;;;5097001;28;20276;-81
2023/08/27 10:40:52;;;;;;;4.72;3.60;;;20.50;99.90;;;;;;5096620;28;20699;-81
2023/08/27 10:43:20;;;;;;;4.60;3.70;;;20.80;99.90;;;;;;5096909;28;20196;-81
2023/08/27 10:45:49;;;;;;;4.18;3.78;;;20.70;99.90;;;;;;5096471;28;20250;-80
2023/08/27 10:48:26;;;;;;;3.92;3.63;;;20.80;99.90;;;;;;5096736;28;20200;-80
2023/08/27 10:50:54;;;;;;;4.90;3.78;;;20.70;99.90;;;;;;5096583;28;20199;-80
2023/08/27 10:53:22;;;;;;;3.83;3.45;;;20.30;99.90;;;;;;5096359;28;20196;-80
2023/08/27 10:55:51;;;;;;;4.68;3.58;;;19.70;99.90;;;;;;5096506;28;20199;-80
2023/08/27 10:58:20;;;;;;;4.70;3.90;;;19.40;99.90;;;;;;5096217;28;20713;-80
2023/08/27 11:01:07;;;;;;;6.07;3.20;;;19.30;99.90;;;;;;5096258;28;20200;-79
2023/08/27 11:03:55;;;;;;;3.50;3.00;;;19.20;99.90;;;;;;5096201;28;20197;-79
2023/08/27 11:06:33;;;;;;;5.18;3.20;;;19.30;99.90;;;;;;5096278;28;20235;-80
2023/08/27 11:09:00;;;;;;;3.65;3.25;;;19.30;99.90;;;;;;5096369;28;20198;-79
2023/08/27 11:11:27;;;;;;;3.22;2.88;;;19.40;99.90;;;;;;5096225;28;20200;-78
2023/08/27 11:14:05;;;;;;;3.40;3.10;;;19.20;99.90;;;;;;5096030;28;20192;-79
2023/08/27 11:16:44;;;;;;;4.15;3.50;;;19.10;99.90;;;;;;5096080;28;20269;-79
2023/08/27 11:19:12;;;;;;;4.78;3.75;;;19.10;99.90;;;;;;5096041;28;20283;-79
2023/08/27 11:21:48;;;;;;;3.53;3.22;;;19.00;99.90;;;;;;5095751;28;20705;-79
2023/08/27 11:24:16;;;;;;;5.18;3.55;;;19.00;99.90;;;;;;5095875;28;20220;-79
2023/08/27 11:26:44;;;;;;;3.10;2.88;;;19.00;99.90;;;;;;5094888;28;20224;-80
2023/08/27 11:29:11;;;;;;;4.72;3.83;;;19.00;99.90;;;;;;5095827;28;20200;-76
2023/08/27 11:31:41;;;;;;;3.92;3.53;;;18.50;99.90;;;;;;5095520;28;20648;-76
2023/08/27 11:34:08;;;;;;;4.72;3.97;;;18.20;99.90;;;;;;5095576;28;20196;-76
2023/08/27 11:36:35;;;;;;;4.22;3.83;;;18.00;99.90;;;;;;5095572;28;20529;-76
2023/08/27 11:39:02;;;;;;;5.57;3.95;;;17.90;99.90;;;;;;5095411;28;20204;-76
2023/08/27 11:41:35;;;;;;;4.78;4.22;;;17.90;99.90;;;;;;5095638;28;20200;-77
2023/08/27 11:44:02;;;;;;;4.93;4.30;;;17.80;99.90;;;;;;5095601;28;20208;-77
2023/08/27 11:46:29;;;;;;;8.77;4.43;;;18.00;99.90;;;;;;5095428;28;20230;-77
2023/08/27 11:48:57;;;;;;;4.97;4.00;;;18.10;99.90;;;;;;5095477;28;20200;-77
2023/08/27 11:51:24;;;;;;;6.63;4.43;;;18.00;99.90;;;;;;5095210;28;20200;-78
2023/08/27 11:53:51;;;;;;;6.35;4.28;;;18.00;99.90;;;;;;5095138;28;20253;-78
2023/08/27 11:56:18;;;;;;;3.88;3.50;;;17.90;99.90;;;;;;5095383;28;20193;-78
2023/08/27 11:58:46;;;;;;;5.90;4.00;;;17.80;99.90;;;;;;5095236;28;20228;-79
2023/08/27 12:01:13;;;;;;;3.05;2.75;;;17.70;99.90;;;;;;5098155;28;20196;-80
2023/08/27 12:03:39;;;;;;;3.63;3.30;;;17.40;99.90;;;;;;5097150;28;20200;-78
2023/08/27 12:06:15;;;;;;;3.65;3.35;;;17.20;99.90;;;;;;5097931;28;20756;-80
2023/08/27 12:08:41;;;;;;;5.13;3.33;;;17.20;99.90;;;;;;5097481;28;20200;-80
2023/08/27 12:11:08;;;;;;;3.88;3.08;;;17.20;99.90;;;;;;5095908;28;20200;-80
2023/08/27 12:13:35;;;;;;;4.00;3.20;;;17.10;99.90;;;;;;5095555;28;20333;-80
2023/08/27 12:16:03;;;;;;;2.90;2.70;;;16.90;99.90;;;;;;5095689;28;20249;-79
2023/08/27 12:18:34;;;;;;;3.42;3.03;;;16.70;99.90;;;;;;5095249;28;20597;-78
2023/08/27 12:21:04;;;;;;;3.28;3.00;;;16.60;99.90;;;;;;5095119;28;20258;-78
2023/08/27 12:23:33;;;;;;;5.55;3.00;;;16.40;99.90;;;;;;5095452;28;20196;-79
2023/08/27 12:26:02;;;;;;;4.33;3.13;;;16.20;99.90;;;;;;5094733;28;20311;-79
2023/08/27 12:28:29;;;;;;;4.57;3.35;;;16.10;99.90;;;;;;5094476;28;20258;-75
2023/08/27 12:30:58;;;;;;;3.90;3.60;;;16.00;99.90;;;;;;5094404;28;20660;-75
2023/08/27 12:33:37;;;;;;;4.20;3.47;;;16.00;99.90;;;;;;5094286;28;20200;-75
2023/08/27 12:36:05;;;;;;;4.23;3.73;;;16.10;99.90;;;;;;5094529;28;20257;-75